Time;durP1;ratioP1;P1;durP2;ratioP2;P2;SDS_P1;SDS_P2;PMS_P1;PMS_P2;Temp;Humidity;BMP_temperature;BMP_pressure;BME280_temperature;BME280_humidity;BME280_pressure;Samples;Min_cycle;Max_cycle;Signal;HPM_P1;HPM_P2
2023/03/03 00:00:36;;;;;;;80.15;36.42;;;;;;;4.81;100.00;99731.44;5131276;27;20019;-69
2023/03/03 00:03:07;;;;;;;85.75;38.00;;;;;;;4.65;100.00;99725.22;5116727;27;20076;-68
2023/03/03 00:05:33;;;;;;;82.50;38.55;;;;;;;4.62;100.00;99717.47;5123836;27;20028;-69
2023/03/03 00:07:59;;;;;;;92.72;40.58;;;;;;;4.52;100.00;99712.84;5113269;28;20031;-69
2023/03/03 00:10:25;;;;;;;74.15;36.05;;;;;;;4.55;100.00;99714.22;5111660;28;20054;-69
2023/03/03 00:12:50;;;;;;;93.18;39.38;;;;;;;4.63;100.00;99695.00;5112956;28;20027;-69
2023/03/03 00:15:18;;;;;;;81.90;35.63;;;;;;;4.63;100.00;99703.31;5110864;27;20038;-69
2023/03/03 00:17:45;;;;;;;91.43;40.55;;;;;;;4.54;100.00;99704.25;5111757;28;20054;-69
2023/03/03 00:20:28;;;;;;;84.65;38.80;;;;;;;4.42;100.00;99697.13;5112958;28;20179;-69
2023/03/03 00:22:53;;;;;;;73.25;35.90;;;;;;;4.48;100.00;99701.50;5114012;27;20035;-69
2023/03/03 00:25:31;;;;;;;76.22;35.03;;;;;;;4.56;100.00;99697.28;5115258;27;20457;-69
2023/03/03 00:28:30;;;;;;;79.88;38.00;;;;;;;4.70;100.00;99691.06;5112907;27;20049;-69
2023/03/03 00:31:02;;;;;;;74.80;35.97;;;;;;;4.73;100.00;99690.50;5093499;28;20035;-69
2023/03/03 00:33:53;;;;;;;75.90;35.45;;;;;;;4.74;100.00;99681.06;5112804;28;20107;-69
2023/03/03 00:36:39;;;;;;;75.13;35.67;;;;;;;4.79;100.00;99672.72;5111306;28;20437;-69
2023/03/03 00:39:36;;;;;;;100.07;40.83;;;;;;;4.81;100.00;99670.47;5111376;28;20484;-69
2023/03/03 00:42:13;;;;;;;71.97;35.72;;;;;;;4.89;100.00;99663.50;5112687;28;20030;-69
2023/03/03 00:44:44;;;;;;;69.70;35.78;;;;;;;4.81;100.00;99664.91;5122870;27;20080;-70
2023/03/03 00:47:30;;;;;;;77.63;33.78;;;;;;;4.90;100.00;99668.72;5118794;27;20034;-69
2023/03/03 00:50:04;;;;;;;75.35;34.63;;;;;;;4.78;100.00;99646.94;5132980;27;20062;-69
2023/03/03 00:52:34;;;;;;;66.55;34.72;;;;;;;4.92;100.00;99654.56;5132860;27;20027;-69
2023/03/03 00:54:59;;;;;;;73.40;34.05;;;;;;;4.88;100.00;99643.25;5112238;27;20030;-69
2023/03/03 00:57:25;;;;;;;84.40;35.40;;;;;;;5.03;100.00;99646.97;5111204;28;20035;-69
2023/03/03 00:59:50;;;;;;;72.07;33.05;;;;;;;4.90;100.00;99642.97;5111975;27;20479;-69
2023/03/03 01:02:16;;;;;;;69.93;34.15;;;;;;;5.02;100.00;99646.16;5112233;28;20031;-69
2023/03/03 01:04:47;;;;;;;77.53;35.60;;;;;;;5.02;100.00;99650.88;5111979;27;20084;-69
2023/03/03 01:07:13;;;;;;;69.15;33.65;;;;;;;5.01;100.00;99640.91;5112031;28;20028;-69
2023/03/03 01:09:38;;;;;;;69.53;34.40;;;;;;;4.94;100.00;99634.84;5093151;28;20410;-68
2023/03/03 01:12:04;;;;;;;67.03;33.10;;;;;;;4.92;100.00;99627.66;5107087;28;20135;-69
2023/03/03 01:14:31;;;;;;;68.00;33.13;;;;;;;5.16;100.00;99643.50;5104856;28;20038;-69
2023/03/03 01:16:57;;;;;;;89.20;35.13;;;;;;;5.21;100.00;99639.84;5111947;28;20019;-70
2023/03/03 01:19:22;;;;;;;75.15;33.53;;;;;;;5.15;100.00;99635.50;5110953;28;20110;-69
2023/03/03 01:21:48;;;;;;;67.55;33.47;;;;;;;5.06;100.00;99638.06;5110654;28;20096;-69
2023/03/03 01:24:13;;;;;;;72.47;34.38;;;;;;;5.12;100.00;99631.34;5121820;27;20027;-69
2023/03/03 01:26:39;;;;;;;69.13;35.05;;;;;;;5.28;100.00;99632.00;5131357;27;20397;-69
2023/03/03 01:29:04;;;;;;;67.85;33.10;;;;;;;5.40;100.00;99636.31;5121251;27;20035;-69
2023/03/03 01:31:30;;;;;;;66.22;33.42;;;;;;;5.42;100.00;99640.41;5125271;27;20473;-69
2023/03/03 01:33:55;;;;;;;69.45;31.30;;;;;;;5.45;100.00;99642.63;5123183;27;20034;-69
2023/03/03 01:36:25;;;;;;;67.70;32.28;;;;;;;5.40;100.00;99636.31;5110407;28;20038;-69
2023/03/03 01:38:51;;;;;;;67.60;33.63;;;;;;;5.47;99.56;99639.53;5111665;28;20084;-69
2023/03/03 01:41:17;;;;;;;65.78;32.55;;;;;;;5.61;98.15;99636.88;5110419;28;20031;-69
2023/03/03 01:43:45;;;;;;;64.60;31.70;;;;;;;5.59;98.36;99639.13;5111875;28;20063;-69
2023/03/03 01:46:32;;;;;;;67.85;31.30;;;;;;;5.59;97.66;99645.47;5119543;28;20027;-69
2023/03/03 01:49:04;;;;;;;73.57;32.92;;;;;;;5.62;97.43;99639.34;5107916;28;20078;-69
2023/03/03 01:51:37;;;;;;;86.43;40.55;;;;;;;5.65;97.32;99637.09;5091151;28;20031;-69
2023/03/03 01:54:12;;;;;;;67.07;33.30;;;;;;;5.65;97.16;99637.91;5100765;28;20107;-69
2023/03/03 01:56:38;;;;;;;68.55;32.70;;;;;;;5.61;96.84;99626.59;5116718;28;20512;-69
2023/03/03 01:59:23;;;;;;;69.45;34.45;;;;;;;5.61;97.41;99631.31;5120618;28;20031;-69
2023/03/03 02:01:48;;;;;;;67.43;32.72;;;;;;;5.69;97.81;99627.03;5130276;27;20034;-69
2023/03/03 02:04:16;;;;;;;64.95;30.23;;;;;;;5.64;97.12;99630.72;5114587;27;20482;-69
2023/03/03 02:06:46;;;;;;;67.28;32.28;;;;;;;5.65;98.13;99614.91;5134786;27;20194;-69
2023/03/03 02:09:25;;;;;;;;;;;;;;;5.60;97.91;99624.13;5124915;27;20402;-69
2023/03/03 02:11:55;;;;;;;66.72;29.98;;;;;;;5.42;98.26;99600.75;5115348;28;19923;-69
2023/03/03 02:14:23;;;;;;;70.70;33.58;;;;;;;5.38;99.52;99608.84;5117006;27;20442;-69
2023/03/03 02:16:49;;;;;;;67.57;34.90;;;;;;;5.29;99.53;99602.31;5115691;28;20031;-69
2023/03/03 02:19:43;;;;;;;67.88;33.08;;;;;;;5.19;100.00;99608.81;5114622;28;20030;-69
2023/03/03 02:22:10;;;;;;;77.47;35.80;;;;;;;5.27;100.00;99601.78;5107623;28;20046;-69
2023/03/03 02:24:45;;;;;;;70.85;33.20;;;;;;;5.37;100.00;99609.97;5121878;27;20102;-69
2023/03/03 02:27:12;;;;;;;80.18;35.33;;;;;;;5.45;100.00;99606.56;5135704;27;20023;-69
2023/03/03 02:29:38;;;;;;;77.40;37.70;;;;;;;5.49;99.73;99598.47;5119934;27;20035;-69
2023/03/03 02:32:03;;;;;;;69.13;36.25;;;;;;;5.60;99.45;99607.47;5112905;28;20088;-69
2023/03/03 02:34:29;;;;;;;76.35;36.78;;;;;;;5.56;98.55;99596.13;5109011;28;20474;-69
2023/03/03 02:36:54;;;;;;;75.03;35.58;;;;;;;5.64;98.73;99597.41;5131873;27;20027;-69
2023/03/03 02:39:23;;;;;;;70.68;36.67;;;;;;;5.57;98.67;99600.56;5134214;27;20485;-69
2023/03/03 02:42:07;;;;;;;81.13;39.67;;;;;;;5.46;99.16;99596.25;5135558;27;20057;-69
2023/03/03 02:44:33;;;;;;;75.13;35.83;;;;;;;5.42;100.00;99590.47;5123009;27;20071;-69
2023/03/03 02:46:59;;;;;;;74.72;35.28;;;;;;;5.40;100.00;99591.91;5124576;27;20046;-69
2023/03/03 02:49:29;;;;;;;75.65;38.10;;;;;;;5.46;99.42;99605.44;5115543;27;20051;-69
2023/03/03 02:51:55;;;;;;;78.25;36.60;;;;;;;5.45;99.89;99589.06;5114740;28;20031;-68
2023/03/03 02:54:22;;;;;;;81.93;36.65;;;;;;;5.52;99.37;99603.41;5113299;27;20555;-69
2023/03/03 02:56:48;;;;;;;75.95;37.83;;;;;;;5.52;99.38;99605.34;5129795;27;20126;-69
2023/03/03 02:59:14;;;;;;;75.60;36.70;;;;;;;5.29;99.77;99605.06;5122820;27;20055;-69
2023/03/03 03:01:39;;;;;;;71.70;37.78;;;;;;;5.17;100.00;99602.75;5113341;28;20035;-69
2023/03/03 03:04:20;;;;;;;73.22;37.38;;;;;;;5.27;100.00;99604.56;5113045;27;20028;-69
2023/03/03 03:06:46;;;;;;;70.65;35.75;;;;;;;5.27;100.00;99599.84;5112915;28;20122;-69
2023/03/03 03:09:14;;;;;;;70.10;35.75;;;;;;;5.29;100.00;99602.31;5113118;28;20062;-69
2023/03/03 03:11:40;;;;;;;75.13;37.35;;;;;;;5.37;100.00;99601.66;5114152;28;20529;-69
2023/03/03 03:14:07;;;;;;;78.03;40.00;;;;;;;5.44;100.00;99609.63;5114389;27;20027;-69
2023/03/03 03:16:33;;;;;;;82.07;37.70;;;;;;;5.42;100.00;99601.56;5111809;28;20470;-69
2023/03/03 03:19:00;;;;;;;72.22;36.17;;;;;;;5.50;100.00;99602.03;5112743;28;20035;-70
2023/03/03 03:21:26;;;;;;;87.70;37.00;;;;;;;5.56;99.83;99607.22;5130659;27;20084;-69
2023/03/03 03:23:52;;;;;;;79.60;35.72;;;;;;;5.61;99.70;99598.00;5134264;27;20421;-69
2023/03/03 03:26:19;;;;;;;84.50;38.25;;;;;;;5.64;99.28;99591.84;5134653;27;20023;-69
2023/03/03 03:28:45;;;;;;;64.55;33.67;;;;;;;5.68;98.83;99598.47;5127491;27;20027;-69
2023/03/03 03:31:11;;;;;;;71.30;36.33;;;;;;;5.60;98.79;99591.63;5114017;28;20024;-69
2023/03/03 03:33:36;;;;;;;69.88;36.38;;;;;;;5.60;99.07;99591.63;5121811;27;20019;-69
2023/03/03 03:36:03;;;;;;;65.63;35.25;;;;;;;5.53;99.25;99587.56;5113881;27;20039;-69
2023/03/03 03:38:30;;;;;;;69.80;36.60;;;;;;;5.60;99.21;99582.50;5113719;28;20035;-69
2023/03/03 03:40:56;;;;;;;65.50;34.72;;;;;;;5.62;98.73;99586.63;5113772;28;20028;-69
2023/03/03 03:43:21;;;;;;;61.65;31.75;;;;;;;5.65;98.83;99590.72;5114816;27;20084;-69
2023/03/03 03:45:47;;;;;;;71.65;36.03;;;;;;;5.61;98.86;99579.44;5103491;27;20039;-70
2023/03/03 03:48:14;;;;;;;70.70;33.88;;;;;;;5.60;98.63;99580.53;5123932;27;20031;-69
2023/03/03 03:50:40;;;;;;;73.32;35.17;;;;;;;5.51;99.44;99587.88;5128819;27;20027;-69
2023/03/03 03:53:06;;;;;;;73.20;34.13;;;;;;;5.43;100.00;99586.59;5114467;27;20024;-69
2023/03/03 03:55:32;;;;;;;67.72;36.70;;;;;;;5.39;100.00;99581.94;5113646;28;20403;-69
2023/03/03 03:57:58;;;;;;;67.35;35.40;;;;;;;5.40;100.00;99587.19;5113347;27;20023;-70
2023/03/03 04:00:24;;;;;;;61.83;35.17;;;;;;;5.25;100.00;99587.38;5093007;28;20024;-69
2023/03/03 04:02:50;;;;;;;71.97;37.50;;;;;;;5.08;100.00;99593.41;5108098;28;20501;-69
2023/03/03 04:05:15;;;;;;;71.40;36.40;;;;;;;4.95;100.00;99589.38;5121593;27;20031;-70
2023/03/03 04:07:41;;;;;;;88.20;43.15;;;;;;;4.94;100.00;99580.25;5124584;27;20022;-69
2023/03/03 04:10:07;;;;;;;82.00;37.85;;;;;;;4.94;100.00;99580.25;5111692;28;20050;-69
2023/03/03 04:12:37;;;;;;;80.88;40.40;;;;;;;4.94;100.00;99574.72;5114500;27;20019;-71
2023/03/03 04:15:14;;;;;;;96.00;44.95;;;;;;;4.97;100.00;99589.94;5114488;27;20405;-69
2023/03/03 04:17:39;;;;;;;75.05;39.33;;;;;;;4.96;100.00;99583.56;5112113;28;20059;-69
2023/03/03 04:20:06;;;;;;;60.42;34.08;;;;;;;4.97;100.00;99589.94;5113119;28;20051;-69
2023/03/03 04:22:32;;;;;;;70.45;33.22;;;;;;;5.01;100.00;99591.00;5112561;27;20024;-69
2023/03/03 04:25:04;;;;;;;70.95;35.03;;;;;;;5.07;100.00;99587.06;5110498;28;20034;-70
2023/03/03 04:27:34;;;;;;;72.85;34.88;;;;;;;5.11;100.00;99585.34;5111195;27;20028;-69
2023/03/03 04:30:00;;;;;;;71.90;36.47;;;;;;;5.21;100.00;99589.91;5128467;27;20031;-70
2023/03/03 04:32:25;;;;;;;65.10;34.05;;;;;;;5.28;100.00;99584.84;5115008;27;20098;-69
2023/03/03 04:34:52;;;;;;;71.65;34.80;;;;;;;5.37;100.00;99585.00;5111387;28;20106;-69
2023/03/03 04:37:18;;;;;;;71.30;33.90;;;;;;;5.39;100.00;99591.09;5112710;28;20019;-69
2023/03/03 04:39:43;;;;;;;66.47;33.50;;;;;;;5.43;100.00;99589.38;5112534;28;20023;-69
2023/03/03 04:42:08;;;;;;;58.97;33.38;;;;;;;5.48;100.00;99589.31;5117804;27;20031;-69
2023/03/03 04:44:34;;;;;;;70.88;34.60;;;;;;;5.45;100.00;99581.59;5119196;27;20030;-70
2023/03/03 04:46:59;;;;;;;64.78;34.28;;;;;;;5.50;100.00;99586.25;5110658;27;20023;-69
2023/03/03 04:49:25;;;;;;;68.38;34.13;;;;;;;5.40;100.00;99578.84;5130921;27;20400;-69
2023/03/03 04:51:51;;;;;;;62.67;33.47;;;;;;;5.44;100.00;99574.38;5132662;27;20019;-69
2023/03/03 04:54:16;;;;;;;57.75;31.75;;;;;;;5.59;100.00;99584.44;5132898;27;20039;-69
2023/03/03 04:56:42;;;;;;;64.35;34.03;;;;;;;5.61;99.90;99581.38;5133006;27;20444;-69
2023/03/03 04:59:07;;;;;;;58.80;31.98;;;;;;;5.65;99.84;99587.97;5120445;27;20390;-69
2023/03/03 05:01:33;;;;;;;73.53;35.80;;;;;;;5.66;99.70;99589.59;5112462;27;20054;-69
2023/03/03 05:03:58;;;;;;;67.45;35.80;;;;;;;5.67;99.66;99585.72;5111805;28;20034;-70
2023/03/03 05:06:24;;;;;;;62.08;34.17;;;;;;;5.56;99.33;99581.44;5111932;28;20031;-68
2023/03/03 05:08:49;;;;;;;61.40;33.55;;;;;;;5.64;99.44;99585.50;5112123;28;20049;-71
2023/03/03 05:11:15;;;;;;;62.45;32.50;;;;;;;5.63;99.23;99592.97;5111393;27;20047;-70
2023/03/03 05:13:40;;;;;;;67.80;35.78;;;;;;;5.54;99.31;99586.44;5118492;27;20404;-70
2023/03/03 05:16:06;;;;;;;70.75;35.35;;;;;;;5.64;99.22;99596.59;5115572;27;20019;-70
2023/03/03 05:18:33;;;;;;;72.93;35.47;;;;;;;5.58;99.12;99593.06;5111848;28;20062;-71
2023/03/03 05:20:59;;;;;;;71.47;34.80;;;;;;;5.47;99.11;99590.44;5095040;28;20028;-73
2023/03/03 05:23:24;;;;;;;62.03;33.25;;;;;;;5.50;99.23;99594.56;5109041;28;20042;-70
2023/03/03 05:25:50;;;;;;;69.40;31.13;;;;;;;5.48;99.28;99588.47;5108200;28;20135;-72
2023/03/03 05:28:16;;;;;;;55.28;32.38;;;;;;;5.55;99.36;99588.09;5110229;28;20043;-70
2023/03/03 05:30:42;;;;;;;64.28;32.40;;;;;;;5.42;99.75;99601.56;5099003;27;20032;-72
2023/03/03 05:33:12;;;;;;;64.28;33.35;;;;;;;5.52;99.41;99597.88;5107429;27;20474;-74
2023/03/03 05:35:38;;;;;;;59.55;31.60;;;;;;;5.50;99.33;99590.94;5109184;28;20028;-74
2023/03/03 05:38:04;;;;;;;65.40;31.65;;;;;;;5.38;100.00;99592.22;5103593;28;20050;-71
2023/03/03 05:40:29;;;;;;;66.55;34.10;;;;;;;5.31;100.00;99605.63;5107625;28;20413;-71
2023/03/03 05:42:54;;;;;;;59.35;30.77;;;;;;;5.23;100.00;99596.00;5107780;28;20035;-73
2023/03/03 05:45:20;;;;;;;62.50;32.45;;;;;;;5.17;100.00;99606.31;5125317;28;20063;-73
2023/03/03 05:47:49;;;;;;;71.68;34.35;;;;;;;5.02;100.00;99600.97;5117287;27;20402;-73
2023/03/03 05:50:16;;;;;;;71.37;35.80;;;;;;;4.95;100.00;99595.78;5129461;27;20549;-67
2023/03/03 05:52:41;;;;;;;83.15;37.70;;;;;;;4.91;100.00;99603.84;5108733;28;20031;-70
2023/03/03 05:55:07;;;;;;;75.78;39.33;;;;;;;4.82;100.00;99605.59;5110963;28;20404;-70
2023/03/03 05:57:34;;;;;;;84.97;39.63;;;;;;;4.84;100.00;99605.31;5112876;28;20066;-64
2023/03/03 06:00:00;;;;;;;90.25;43.53;;;;;;;4.83;100.00;99596.19;5112469;28;20137;-67
2023/03/03 06:02:26;;;;;;;108.97;43.03;;;;;;;4.78;100.00;99599.84;5108800;28;20023;-70
2023/03/03 06:04:51;;;;;;;75.90;39.53;;;;;;;4.74;100.00;99598.75;5113390;28;20031;-72
2023/03/03 06:07:17;;;;;;;79.30;42.55;;;;;;;4.73;100.00;99601.84;5121210;27;20031;-71
2023/03/03 06:09:42;;;;;;;83.38;46.47;;;;;;;4.80;100.00;99612.56;5107864;28;20351;-73
2023/03/03 06:12:08;;;;;;;71.82;36.17;;;;;;;4.74;100.00;99617.34;5103826;28;20047;-71
2023/03/03 06:14:33;;;;;;;84.07;44.60;;;;;;;4.67;100.00;99609.38;5104767;28;20027;-70
2023/03/03 06:16:59;;;;;;;89.47;42.40;;;;;;;4.74;100.00;99612.59;5104984;28;20046;-72
2023/03/03 06:19:24;;;;;;;69.68;37.22;;;;;;;4.87;100.00;99619.41;5106839;28;20144;-73
2023/03/03 06:21:50;;;;;;;78.20;42.63;;;;;;;4.87;100.00;99630.50;5110685;28;20031;-71
2023/03/03 06:24:15;;;;;;;78.03;38.75;;;;;;;4.88;100.00;99620.22;5118151;27;20027;-70
2023/03/03 06:26:41;;;;;;;67.20;39.92;;;;;;;4.82;100.00;99621.41;5101964;28;20111;-69
2023/03/03 06:29:06;;;;;;;72.68;37.42;;;;;;;4.78;100.00;99610.91;5105308;28;20035;-71
2023/03/03 06:31:32;;;;;;;63.90;36.00;;;;;;;4.87;100.00;99624.97;5110428;28;20084;-70
2023/03/03 06:33:58;;;;;;;66.88;36.50;;;;;;;4.88;100.00;99623.00;5101285;28;20032;-71
2023/03/03 06:36:24;;;;;;;90.65;41.75;;;;;;;4.98;100.00;99627.63;5116828;28;20111;-69
2023/03/03 06:38:50;;;;;;;78.95;41.10;;;;;;;5.00;100.00;99628.97;5120175;28;20104;-69
2023/03/03 06:41:15;;;;;;;78.25;38.83;;;;;;;5.07;100.00;99628.66;5111334;27;20039;-69
2023/03/03 06:43:41;;;;;;;68.05;38.05;;;;;;;4.98;100.00;99616.53;5109091;28;20114;-69
2023/03/03 06:46:06;;;;;;;73.30;37.35;;;;;;;4.94;100.00;99623.78;5098507;28;20027;-71
2023/03/03 06:48:32;;;;;;;75.82;38.53;;;;;;;4.97;100.00;99629.56;5096324;28;20027;-70
2023/03/03 06:51:01;;;;;;;89.80;43.28;;;;;;;5.03;100.00;99630.34;5108520;27;20063;-69
2023/03/03 06:53:27;;;;;;;103.22;53.28;;;;;;;5.19;100.00;99625.44;5103637;27;20694;-71
2023/03/03 06:55:55;;;;;;;118.63;56.10;;;;;;;5.21;100.00;99634.28;5108917;27;20031;-71
2023/03/03 06:58:22;;;;;;;121.20;59.83;;;;;;;5.24;100.00;99635.66;5106060;27;20098;-69
2023/03/03 07:00:57;;;;;;;133.85;63.88;;;;;;;5.15;100.00;99630.75;5105888;27;20028;-69
2023/03/03 07:03:31;;;;;;;102.53;50.60;;;;;;;5.11;100.00;99628.84;5107519;27;20027;-70
2023/03/03 07:05:56;;;;;;;97.63;53.08;;;;;;;5.01;100.00;99635.34;5107043;28;20024;-71
2023/03/03 07:08:24;;;;;;;96.90;53.53;;;;;;;5.06;100.00;99626.97;5109251;28;20019;-71
2023/03/03 07:10:51;;;;;;;78.90;39.22;;;;;;;4.95;100.00;99634.56;5116492;27;20054;-75
2023/03/03 07:13:19;;;;;;;66.90;33.65;;;;;;;5.02;100.00;99635.06;5132406;27;20093;-74
2023/03/03 07:15:46;;;;;;;75.10;35.30;;;;;;;4.96;100.00;99630.69;5117660;27;20491;-74
2023/03/03 07:18:38;;;;;;;67.85;36.42;;;;;;;5.03;100.00;99635.88;5091286;28;20103;-74
2023/03/03 07:21:24;;;;;;;81.65;41.33;;;;;;;5.14;100.00;99634.66;5101478;28;20106;-74
2023/03/03 07:23:52;;;;;;;104.00;53.75;;;;;;;5.17;100.00;99633.25;5110292;27;20713;-73
2023/03/03 07:26:21;;;;;;;96.45;49.17;;;;;;;5.10;100.00;99632.75;5104168;28;20028;-72
2023/03/03 07:29:14;;;;;;;195.35;86.53;;;;;;;5.15;100.00;99632.72;5106850;28;20031;-73
2023/03/03 07:31:41;;;;;;;373.52;149.77;;;;;;;5.17;100.00;99636.00;5105241;27;20727;-73
2023/03/03 07:34:29;;;;;;;378.35;153.80;;;;;;;5.19;100.00;99631.00;5111829;27;20038;-74
2023/03/03 07:37:04;;;;;;;476.48;218.27;;;;;;;5.31;100.00;99633.38;5102520;28;20044;-76
2023/03/03 07:39:39;;;;;;;374.75;183.15;;;;;;;5.36;100.00;99632.44;5110108;28;20039;-75
2023/03/03 07:42:08;;;;;;;303.67;141.00;;;;;;;5.43;100.00;99633.78;5107279;28;20590;-74
2023/03/03 07:44:35;;;;;;;222.80;105.95;;;;;;;5.52;100.00;99624.78;5109512;28;20061;-72
2023/03/03 07:47:29;;;;;;;148.20;71.95;;;;;;;5.55;99.72;99635.25;5108178;28;20031;-73
2023/03/03 07:49:59;;;;;;;91.13;45.92;;;;;;;5.50;99.92;99640.88;5104097;28;20089;-74
2023/03/03 07:52:39;;;;;;;85.63;46.70;;;;;;;5.56;99.27;99634.16;5106325;28;20023;-74
2023/03/03 07:55:36;;;;;;;79.90;44.22;;;;;;;5.68;99.21;99628.16;5102168;28;20057;-74
2023/03/03 07:58:11;;;;;;;92.88;52.67;;;;;;;5.75;98.27;99628.63;5105853;28;20584;-73
2023/03/03 08:01:15;;;;;;;166.48;86.25;;;;;;;5.64;99.33;99630.72;5108994;28;20106;-71
2023/03/03 08:03:43;;;;;;;77.03;42.03;;;;;;;5.50;99.25;99627.84;5104942;28;20027;-71
2023/03/03 08:06:31;;;;;;;79.93;41.80;;;;;;;5.23;99.70;99622.91;5110280;28;20113;-73
2023/03/03 08:09:12;;;;;;;72.97;39.40;;;;;;;5.29;98.99;99619.78;5105328;28;20101;-73
2023/03/03 08:11:58;;;;;;;68.82;37.10;;;;;;;5.41;98.68;99615.75;5102876;28;20130;-71
2023/03/03 08:14:30;;;;;;;73.40;39.35;;;;;;;5.38;100.00;99622.72;5102053;28;20103;-71
2023/03/03 08:16:56;;;;;;;64.75;36.65;;;;;;;5.28;99.00;99617.28;5107498;28;20038;-73
2023/03/03 08:19:22;;;;;;;72.55;40.47;;;;;;;5.46;98.94;99610.13;5106078;28;20027;-73
2023/03/03 08:21:48;;;;;;;67.70;38.63;;;;;;;5.61;97.38;99612.72;5101565;28;20020;-74
2023/03/03 08:24:13;;;;;;;70.97;35.13;;;;;;;5.76;96.83;99608.91;5108133;28;20100;-73
2023/03/03 08:26:39;;;;;;;59.58;34.60;;;;;;;5.86;96.32;99605.16;5107954;28;20036;-72
2023/03/03 08:29:05;;;;;;;61.35;32.97;;;;;;;5.80;96.65;99608.31;5103416;28;20140;-70
2023/03/03 08:31:30;;;;;;;62.28;35.17;;;;;;;5.84;95.79;99598.25;5108063;28;20475;-73
2023/03/03 08:33:55;;;;;;;67.00;35.08;;;;;;;5.91;95.31;99601.47;5104149;28;20061;-73
2023/03/03 08:36:21;;;;;;;65.45;34.00;;;;;;;6.00;94.78;99596.06;5107564;28;20030;-71
2023/03/03 08:38:46;;;;;;;62.03;35.60;;;;;;;6.03;94.94;99592.72;5104957;28;20501;-73
2023/03/03 08:41:12;;;;;;;66.13;36.20;;;;;;;6.02;94.92;99589.09;5110210;27;20379;-73
2023/03/03 08:43:38;;;;;;;77.45;41.05;;;;;;;5.84;93.54;99587.97;5107035;28;20058;-70
2023/03/03 08:46:05;;;;;;;66.85;31.45;;;;;;;5.77;92.59;99595.84;5108799;27;20570;-70
2023/03/03 08:48:31;;;;;;;61.53;30.33;;;;;;;5.80;92.98;99592.47;5106373;27;20031;-70
2023/03/03 08:50:57;;;;;;;49.28;25.38;;;;;;;5.85;93.96;99586.88;5118444;27;20031;-67
2023/03/03 08:53:23;;;;;;;104.40;49.90;;;;;;;5.87;93.42;99595.72;5108031;28;20160;-69
2023/03/03 08:55:49;;;;;;;77.00;33.20;;;;;;;5.84;93.07;99590.72;5102536;27;20116;-70
2023/03/03 08:58:17;;;;;;;82.53;34.83;;;;;;;5.86;93.53;99599.63;5098881;27;20483;-68
2023/03/03 09:00:42;;;;;;;79.82;34.17;;;;;;;5.61;89.60;99598.00;5099920;27;20505;-70
2023/03/03 09:03:08;;;;;;;74.80;32.80;;;;;;;5.44;89.74;99604.91;5106531;28;20044;-70
2023/03/03 09:05:36;;;;;;;48.65;22.08;;;;;;;5.40;88.50;99600.25;5105167;27;20038;-70
2023/03/03 09:08:03;;;;;;;645.03;343.25;;;;;;;5.47;94.08;99586.81;5104510;27;20490;-70
2023/03/03 09:10:30;;;;;;;1999.90;922.67;;;;;;;5.65;96.68;99587.16;5102278;27;20492;-70
2023/03/03 09:13:00;;;;;;;1999.90;819.25;;;;;;;6.12;100.00;99590.06;5099741;28;20108;-69
2023/03/03 09:15:34;;;;;;;1879.22;573.60;;;;;;;6.11;99.11;99586.50;5107949;27;20297;-72
2023/03/03 09:18:14;;;;;;;1999.90;999.90;;;;;;;6.15;100.00;99589.47;5104283;28;20035;-69
2023/03/03 09:20:44;;;;;;;1999.90;999.90;;;;;;;6.44;100.00;99580.13;5106210;27;20494;-68
2023/03/03 09:23:42;;;;;;;1999.90;878.83;;;;;;;6.61;100.00;99582.31;5104525;28;20043;-71
2023/03/03 09:26:43;;;;;;;1999.90;999.90;;;;;;;6.80;100.00;99582.25;5102589;28;20044;-70
2023/03/03 09:29:26;;;;;;;1999.90;999.90;;;;;;;6.98;97.51;99579.66;5099102;28;20062;-68
2023/03/03 09:31:59;;;;;;;1999.90;999.90;;;;;;;7.10;97.01;99588.31;5103213;28;20088;-70
2023/03/03 09:34:28;;;;;;;1999.90;999.90;;;;;;;7.09;99.62;99577.53;5100208;28;20447;-70
2023/03/03 09:36:54;;;;;;;1999.90;999.90;;;;;;;7.22;100.00;99584.22;5103579;28;20031;-73
2023/03/03 09:39:24;;;;;;;1999.90;999.90;;;;;;;7.11;93.78;99591.94;5099052;28;20027;-70
2023/03/03 09:42:04;;;;;;;1999.90;999.90;;;;;;;7.29;91.45;99582.66;5102248;28;20051;-71
2023/03/03 09:44:32;;;;;;;;;;;;;;;7.41;90.54;99596.06;5101858;28;20110;-69
2023/03/03 09:47:22;;;;;;;1999.90;999.90;;;;;;;7.27;88.73;99584.13;5103365;28;19922;-72
2023/03/03 09:50:25;;;;;;;1999.90;999.90;;;;;;;7.43;91.40;99585.44;5105502;28;20062;-70
2023/03/03 09:53:06;;;;;;;1999.90;951.70;;;;;;;7.09;84.34;99580.31;5098134;28;20521;-72
2023/03/03 09:55:55;;;;;;;1999.90;999.90;;;;;;;6.82;84.45;99577.19;5105079;28;20042;-71
2023/03/03 09:58:20;;;;;;;165.83;98.50;;;;;;;7.01;83.85;99582.66;5097271;28;20124;-69
2023/03/03 10:00:49;;;;;;;34.40;21.08;;;;;;;7.24;83.41;99584.72;5104585;28;20084;-71
2023/03/03 10:03:29;;;;;;;32.10;18.70;;;;;;;7.32;83.43;99584.00;5105446;28;20114;-67
2023/03/03 10:06:04;;;;;;;34.28;17.05;;;;;;;6.91;82.17;99579.28;5103485;28;20058;-68
2023/03/03 10:08:46;;;;;;;35.47;19.55;;;;;;;7.02;83.82;99572.38;5101217;28;20607;-68
2023/03/03 10:11:19;;;;;;;25.60;16.67;;;;;;;7.24;83.13;99573.59;5103373;28;20052;-68
2023/03/03 10:14:08;;;;;;;33.60;19.38;;;;;;;6.04;85.48;99567.44;5107971;28;20418;-70
2023/03/03 10:16:55;;;;;;;39.17;21.50;;;;;;;6.44;87.49;99557.88;5105899;28;20118;-69
2023/03/03 10:19:33;;;;;;;38.97;22.10;;;;;;;6.56;87.24;99561.00;5105225;28;20031;-67
2023/03/03 10:22:07;;;;;;;34.78;22.15;;;;;;;6.28;88.31;99552.59;5105856;28;20038;-70
2023/03/03 10:25:01;;;;;;;39.85;23.17;;;;;;;6.66;87.62;99548.06;5104681;28;20458;-72
2023/03/03 10:27:54;;;;;;;45.20;23.63;;;;;;;6.71;87.28;99545.16;5105530;28;20110;-71
2023/03/03 10:30:45;;;;;;;39.30;23.15;;;;;;;6.40;87.32;99551.31;5108898;28;20031;-71
2023/03/03 10:33:37;;;;;;;52.42;24.67;;;;;;;6.79;86.33;99538.06;5109629;27;20054;-69
2023/03/03 10:36:22;;;;;;;40.28;24.45;;;;;;;6.92;84.80;99544.78;5107031;28;20035;-67
2023/03/03 10:38:48;;;;;;;49.42;25.85;;;;;;;7.20;85.19;99544.75;5102863;28;20050;-71
2023/03/03 10:41:34;;;;;;;43.50;24.38;;;;;;;7.38;84.93;99538.25;5109601;28;20031;-66
2023/03/03 10:44:34;;;;;;;47.00;25.45;;;;;;;7.40;84.82;99533.19;5109630;28;20039;-68
2023/03/03 10:47:32;;;;;;;56.03;27.38;;;;;;;7.51;85.64;99527.41;5108557;27;20035;-70
2023/03/03 10:50:00;;;;;;;43.80;25.48;;;;;;;7.30;82.90;99534.25;5111271;27;20594;-71
2023/03/03 10:52:46;;;;;;;46.53;27.13;;;;;;;7.16;82.01;99530.63;5108476;28;20027;-71
2023/03/03 10:55:44;;;;;;;67.20;34.75;;;;;;;6.85;84.60;99520.97;5109954;28;20030;-67
2023/03/03 10:58:38;;;;;;;52.83;30.90;;;;;;;7.26;84.52;99512.91;5061966;28;20046;-68
2023/03/03 11:01:21;;;;;;;42.45;26.08;;;;;;;7.22;85.36;99509.09;5092160;27;20027;-69
2023/03/03 11:03:47;;;;;;;46.22;26.45;;;;;;;7.29;84.49;99509.50;5104015;28;20474;-67
2023/03/03 11:06:40;;;;;;;58.35;33.13;;;;;;;6.99;82.74;99511.78;5108233;28;20030;-70
2023/03/03 11:09:39;;;;;;;38.83;23.20;;;;;;;7.41;83.34;99501.44;5111550;27;20081;-69
2023/03/03 11:12:20;;;;;;;34.60;22.42;;;;;;;7.17;85.01;99493.31;5097206;28;20044;-68
2023/03/03 11:14:55;;;;;;;41.95;24.70;;;;;;;7.40;86.36;99488.66;5109270;28;20039;-70
2023/03/03 11:17:20;;;;;;;31.23;20.65;;;;;;;7.55;82.51;99484.72;5110200;28;20036;-69
2023/03/03 11:20:03;;;;;;;32.58;19.02;;;;;;;7.95;81.89;99481.22;5111093;28;20050;-68
2023/03/03 11:22:58;;;;;;;29.60;19.08;;;;;;;8.07;82.68;99477.03;5105311;28;20028;-69
2023/03/03 11:25:44;;;;;;;26.88;17.60;;;;;;;8.24;80.21;99477.16;5106909;27;20070;-69
2023/03/03 11:28:16;;;;;;;24.75;16.17;;;;;;;7.90;80.13;99477.75;5112216;27;20179;-68
2023/03/03 11:30:50;;;;;;;26.40;15.40;;;;;;;8.06;81.82;99476.22;5106286;27;20023;-70
2023/03/03 11:33:30;;;;;;;25.88;15.57;;;;;;;8.45;80.47;99470.19;5101411;27;20076;-69
2023/03/03 11:36:10;;;;;;;22.55;14.48;;;;;;;8.62;78.48;99469.50;5104847;27;20223;-69
2023/03/03 11:38:43;;;;;;;;;;;;;;;8.48;76.52;99467.59;5104365;27;20035;-69